Time;durP1;ratioP1;P1;durP2;ratioP2;P2;SDS_P1;SDS_P2;PMS_P1;PMS_P2;Temp;Humidity;BMP_temperature;BMP_pressure;BME280_temperature;BME280_humidity;BME280_pressure;Samples;Min_cycle;Max_cycle;Signal;HPM_P1;HPM_P2
2023/10/25 00:01:28;;;;;;;440.13;178.37;;;;;;;;;;5075108;28;20224;-67
2023/10/25 00:03:54;;;;;;;477.73;197.63;;;;;;;;;;5075033;28;20220;-67
2023/10/25 00:06:20;;;;;;;427.10;170.87;;;;;;;;;;5077240;28;20212;-67
2023/10/25 00:08:46;;;;;;;454.73;185.33;;;;;;;;;;5073540;28;20185;-67
2023/10/25 00:11:12;;;;;;;464.43;187.60;;;;;;;;;;5077093;28;20217;-67
2023/10/25 00:13:38;;;;;;;439.50;175.33;;;;;;;;;;5073634;28;20757;-67
2023/10/25 00:16:04;;;;;;;464.97;188.93;;;;;;;;;;5073967;28;20735;-67
2023/10/25 00:18:30;;;;;;;447.87;176.10;;;;;;;;;;5073640;28;20225;-67
2023/10/25 00:20:56;;;;;;;471.67;196.13;;;;;;;;;;5073131;28;20175;-67
2023/10/25 00:23:22;;;;;;;436.27;174.33;;;;;;;;;;5070855;28;21031;-67
2023/10/25 00:25:49;;;;;;;460.90;185.97;;;;;;;;;;5077009;28;20221;-67
2023/10/25 00:28:15;;;;;;;458.53;184.70;;;;;;;;;;5072320;28;20215;-67
2023/10/25 00:30:41;;;;;;;461.07;186.47;;;;;;;;;;5073366;28;20902;-67
2023/10/25 00:33:07;;;;;;;465.53;187.43;;;;;;;;;;5072425;28;20183;-67
2023/10/25 00:35:33;;;;;;;493.57;205.90;;;;;;;;;;5074854;28;20301;-67
2023/10/25 00:37:59;;;;;;;468.37;191.43;;;;;;;;;;5068173;28;20301;-67
2023/10/25 00:40:25;;;;;;;451.90;184.13;;;;;;;;;;5074817;28;20201;-67
2023/10/25 00:42:51;;;;;;;498.63;205.67;;;;;;;;;;5072393;28;20206;-67
2023/10/25 00:45:17;;;;;;;498.30;210.67;;;;;;;;;;5070097;28;20193;-67
2023/10/25 00:47:43;;;;;;;442.17;176.03;;;;;;;;;;5077971;28;20213;-68
2023/10/25 00:50:17;;;;;;;473.60;190.50;;;12.40;99.90;;;;;;5078198;28;20603;-67
2023/10/25 00:52:43;;;;;;;462.23;184.67;;;;;;;;;;5078253;28;20976;-67
2023/10/25 00:55:09;;;;;;;475.03;197.27;;;;;;;;;;5076082;28;20815;-67
2023/10/25 00:57:35;;;;;;;455.47;181.47;;;;;;;;;;5074898;28;20270;-67
2023/10/25 01:00:00;;;;;;;469.10;196.10;;;12.40;99.90;;;;;;5078606;28;20240;-67
2023/10/25 01:02:27;;;;;;;481.53;200.30;;;;;;;;;;5077734;28;21185;-67
2023/10/25 01:04:53;;;;;;;501.07;210.93;;;;;;;;;;5075027;28;20675;-67
2023/10/25 01:07:19;;;;;;;454.70;184.13;;;;;;;;;;5073156;27;20213;-67
2023/10/25 01:09:45;;;;;;;437.80;172.90;;;;;;;;;;5072758;28;20275;-67
2023/10/25 01:12:11;;;;;;;466.77;188.93;;;;;;;;;;5080322;28;20193;-67
2023/10/25 01:14:37;;;;;;;462.03;190.63;;;;;;;;;;5078374;28;20219;-67
2023/10/25 01:17:03;;;;;;;484.20;199.20;;;;;;;;;;5078366;28;20217;-67
2023/10/25 01:19:29;;;;;;;446.57;179.43;;;;;;;;;;5072937;28;20214;-67
2023/10/25 01:21:55;;;;;;;477.10;201.00;;;;;;;;;;5075220;28;20218;-67
2023/10/25 01:24:21;;;;;;;448.23;184.53;;;12.40;99.90;;;;;;5076991;28;20228;-67
2023/10/25 01:26:47;;;;;;;455.63;186.60;;;;;;;;;;5078515;28;20198;-67
2023/10/25 01:29:13;;;;;;;462.67;190.07;;;;;;;;;;5075901;28;20620;-67
2023/10/25 01:31:39;;;;;;;433.30;174.00;;;;;;;;;;5075264;28;20395;-67
2023/10/25 01:34:05;;;;;;;473.20;195.17;;;;;;;;;;5075135;28;20232;-67
2023/10/25 01:36:31;;;;;;;435.17;175.70;;;;;;;;;;5079215;28;20214;-67
2023/10/25 01:38:57;;;;;;;484.57;199.33;;;;;;;;;;5076377;28;20586;-67
2023/10/25 01:41:23;;;;;;;441.63;181.00;;;;;;;;;;5078529;28;20232;-67
2023/10/25 01:43:49;;;;;;;427.20;169.27;;;;;;;;;;5074892;28;20214;-67
2023/10/25 01:46:15;;;;;;;452.30;180.50;;;;;;;;;;5074023;28;20277;-67
2023/10/25 01:48:43;;;;;;;438.53;173.53;;;;;;;;;;5078351;28;20217;-67
2023/10/25 01:51:09;;;;;;;523.03;222.47;;;;;;;;;;5077842;28;20186;-67
2023/10/25 01:53:35;;;;;;;451.07;179.40;;;;;;;;;;5076297;28;20174;-66
2023/10/25 01:56:02;;;;;;;467.60;188.90;;;;;;;;;;5075838;28;20222;-67
2023/10/25 01:58:27;;;;;;;452.93;182.97;;;;;;;;;;5077274;28;20214;-67
2023/10/25 02:00:53;;;;;;;445.60;181.23;;;;;;;;;;5077164;28;20214;-67
2023/10/25 02:03:19;;;;;;;465.10;186.40;;;;;;;;;;5071906;28;20194;-67
2023/10/25 02:05:45;;;;;;;478.90;197.70;;;;;;;;;;5075037;28;20206;-67
2023/10/25 02:08:11;;;;;;;455.90;184.43;;;;;;;;;;5074454;28;20219;-67
2023/10/25 02:10:37;;;;;;;455.63;182.10;;;12.70;99.90;;;;;;5075301;28;20207;-67
2023/10/25 02:13:03;;;;;;;466.67;189.87;;;;;;;;;;5076284;28;20236;-67
2023/10/25 02:15:29;;;;;;;451.07;179.63;;;;;;;;;;5070084;28;20636;-67
2023/10/25 02:17:55;;;;;;;461.13;187.90;;;;;;;;;;5078442;28;20202;-66
2023/10/25 02:20:21;;;;;;;473.83;186.97;;;;;;;;;;5073986;28;20672;-67
2023/10/25 02:22:47;;;;;;;444.80;172.87;;;;;;;;;;5077898;28;20364;-67
2023/10/25 02:25:13;;;;;;;478.27;200.30;;;;;;;;;;5072861;28;20834;-67
2023/10/25 02:27:38;;;;;;;466.03;187.30;;;;;;;;;;5075652;28;20210;-67
2023/10/25 02:30:05;;;;;;;467.23;193.27;;;;;;;;;;5072239;28;20170;-67
2023/10/25 02:32:31;;;;;;;447.50;182.10;;;;;;;;;;5077551;28;20235;-67
2023/10/25 02:34:57;;;;;;;460.37;188.60;;;;;;;;;;5072949;28;20214;-67
2023/10/25 02:37:23;;;;;;;475.83;191.97;;;;;;;;;;5079260;28;20226;-67
2023/10/25 02:39:48;;;;;;;464.03;186.50;;;;;;;;;;5073839;28;20226;-67
2023/10/25 02:42:14;;;;;;;458.83;183.83;;;;;;;;;;5075114;28;20223;-67
2023/10/25 02:44:40;;;;;;;487.37;199.80;;;;;;;;;;5073135;28;20204;-67
2023/10/25 02:47:06;;;;;;;491.30;206.20;;;;;;;;;;5074576;28;20214;-67
2023/10/25 02:49:36;;;;;;;452.10;178.00;;;;;;;;;;5079467;28;20218;-67
2023/10/25 02:52:02;;;;;;;448.40;182.93;;;;;;;;;;5078814;28;20213;-67
2023/10/25 02:54:28;;;;;;;431.70;170.27;;;;;;;;;;5074056;28;20222;-66
2023/10/25 02:56:54;;;;;;;445.60;178.13;;;;;;;;;;5073042;28;20276;-67
2023/10/25 02:59:20;;;;;;;463.80;184.53;;;;;;;;;;5075470;28;20232;-67
2023/10/25 03:01:46;;;;;;;454.77;181.57;;;;;;;;;;5072587;28;20215;-67
2023/10/25 03:04:11;;;;;;;495.07;206.10;;;;;;;;;;5073137;28;20206;-67
2023/10/25 03:06:37;;;;;;;435.77;173.37;;;;;;;;;;5072516;28;20727;-67
2023/10/25 03:09:03;;;;;;;464.87;186.20;;;;;;;;;;5076606;28;20285;-67
2023/10/25 03:11:29;;;;;;;453.07;177.53;;;;;;;;;;5074123;28;20257;-67
2023/10/25 03:13:55;;;;;;;445.70;180.27;;;;;;;;;;5075939;28;20257;-67
2023/10/25 03:16:21;;;;;;;470.40;187.87;;;;;;;;;;5075536;28;20221;-67
2023/10/25 03:18:47;;;;;;;453.90;181.83;;;;;;;;;;5072477;28;20217;-67
2023/10/25 03:21:13;;;;;;;475.40;197.13;;;;;;;;;;5073799;28;20175;-67
2023/10/25 03:23:39;;;;;;;440.87;177.77;;;;;;;;;;5074513;28;20178;-67
2023/10/25 03:26:06;;;;;;;469.60;190.87;;;;;;;;;;5073989;28;20552;-67
2023/10/25 03:28:32;;;;;;;423.03;167.23;;;;;;;;;;5081065;28;20703;-67
2023/10/25 03:30:58;;;;;;;448.70;179.93;;;;;;;;;;5080967;28;20737;-67
2023/10/25 03:33:24;;;;;;;429.63;170.27;;;;;;;;;;5075395;28;20877;-67
2023/10/25 03:35:53;;;;;;;481.47;197.53;;;12.50;99.90;;;;;;5072996;28;20202;-66
2023/10/25 03:38:19;;;;;;;458.97;185.93;;;;;;;;;;5070273;28;20664;-67
2023/10/25 03:40:45;;;;;;;448.03;178.93;;;;;;;;;;5075369;28;20206;-67
2023/10/25 03:43:11;;;;;;;498.90;207.47;;;;;;;;;;5073133;28;20202;-67
2023/10/25 03:45:37;;;;;;;471.70;190.20;;;;;;;;;;5073955;28;20208;-67
2023/10/25 03:48:03;;;;;;;475.83;197.13;;;;;;;;;;5072357;28;20216;-67
2023/10/25 03:50:29;;;;;;;451.43;180.93;;;;;;;;;;5073646;28;20267;-66
2023/10/25 03:52:55;;;;;;;446.20;176.60;;;;;;;;;;5073533;28;20703;-67
2023/10/25 03:55:21;;;;;;;449.40;176.13;;;;;;;;;;5069227;28;20248;-67
2023/10/25 03:57:47;;;;;;;437.10;174.17;;;;;;;;;;5071693;28;20238;-67
2023/10/25 04:00:14;;;;;;;526.33;229.37;;;;;;;;;;5072073;28;20213;-67
2023/10/25 04:02:40;;;;;;;429.97;170.83;;;;;;;;;;5074936;28;20583;-67
2023/10/25 04:05:06;;;;;;;471.43;195.87;;;;;;;;;;5069720;28;20337;-67
2023/10/25 04:07:32;;;;;;;412.73;161.27;;;;;;;;;;5073967;28;20225;-67
2023/10/25 04:09:58;;;;;;;450.03;184.93;;;;;;;;;;5075451;28;20203;-67
2023/10/25 04:12:24;;;;;;;501.07;206.97;;;;;;;;;;5071611;28;20225;-67
2023/10/25 04:14:50;;;;;;;451.17;183.67;;;;;;;;;;5075838;28;20214;-66
2023/10/25 04:17:16;;;;;;;474.97;192.37;;;;;;;;;;5074085;28;20818;-67
2023/10/25 04:19:42;;;;;;;458.07;185.07;;;;;;;;;;5074906;28;20251;-67
2023/10/25 04:22:08;;;;;;;516.30;220.17;;;;;;;;;;5075531;28;20213;-67
2023/10/25 04:24:34;;;;;;;449.27;183.67;;;;;;;;;;5080736;28;20212;-67
2023/10/25 04:27:01;;;;;;;446.57;177.43;;;;;;;;;;5081665;28;20289;-67
2023/10/25 04:29:28;;;;;;;449.03;180.70;;;;;;;;;;5075197;28;20233;-67
2023/10/25 04:31:54;;;;;;;455.83;182.70;;;;;;;;;;5076525;28;20268;-67
2023/10/25 04:34:20;;;;;;;472.97;192.87;;;;;;;;;;5077695;28;20222;-68
2023/10/25 04:36:47;;;;;;;464.90;188.60;;;;;;;;;;5076900;28;20202;-66
2023/10/25 04:39:13;;;;;;;494.33;207.87;;;;;;;;;;5077628;28;20217;-67
2023/10/25 04:41:39;;;;;;;433.70;175.57;;;;;;;;;;5081669;28;20206;-67
2023/10/25 04:44:05;;;;;;;445.60;181.07;;;;;;;;;;5072342;28;20222;-67
2023/10/25 04:46:31;;;;;;;435.37;177.20;;;;;;;;;;5079920;28;20222;-67
2023/10/25 04:48:57;;;;;;;442.63;178.03;;;;;;;;;;5079060;28;20224;-67
2023/10/25 04:51:23;;;;;;;452.93;185.87;;;;;;;;;;5077505;28;20702;-67
2023/10/25 04:53:49;;;;;;;431.83;171.60;;;;;;;;;;5080435;28;20182;-67
2023/10/25 04:56:15;;;;;;;467.47;192.13;;;;;;;;;;5073994;28;20213;-67
2023/10/25 04:58:41;;;;;;;432.77;170.77;;;;;;;;;;5079761;28;20305;-67
2023/10/25 05:01:16;;;;;;;471.47;193.50;;;;;;;;;;5078600;28;20214;-67
2023/10/25 05:03:45;;;;;;;465.30;190.67;;;;;;;;;;5076768;28;20205;-67
2023/10/25 05:06:11;;;;;;;478.97;196.60;;;12.10;99.90;;;;;;5074475;28;20210;-68
2023/10/25 05:08:37;;;;;;;453.80;179.03;;;;;;;;;;5075278;28;20182;-67
2023/10/25 05:11:04;;;;;;;467.23;188.87;;;;;;;;;;5079582;28;20755;-66
2023/10/25 05:13:31;;;;;;;472.87;190.90;;;;;;;;;;5079313;28;20319;-67
2023/10/25 05:15:57;;;;;;;454.87;177.07;;;;;;;;;;5078529;28;20231;-67
2023/10/25 05:18:23;;;;;;;486.17;194.40;;;;;;;;;;5075025;28;20217;-67
2023/10/25 05:21:01;;;;;;;454.97;184.17;;;12.20;99.90;;;;;;5076951;28;20246;-67
2023/10/25 05:23:31;;;;;;;464.63;191.57;;;12.20;99.90;;;;;;5072260;28;20238;-67
2023/10/25 05:25:59;;;;;;;456.37;182.17;;;;;;;;;;5077151;28;20524;-67
2023/10/25 05:28:25;;;;;;;471.47;192.20;;;;;;;;;;5081353;28;20212;-67
2023/10/25 05:30:53;;;;;;;449.87;179.90;;;;;;;;;;5078305;28;20215;-67
2023/10/25 05:33:19;;;;;;;549.90;246.77;;;;;;;;;;5063222;28;20358;-68
2023/10/25 05:35:46;;;;;;;464.07;186.77;;;;;;;;;;5074918;28;21634;-76
2023/10/25 05:38:13;;;;;;;446.93;184.13;;;;;;;;;;5082127;28;20221;-75
2023/10/25 05:40:39;;;;;;;449.97;177.20;;;;;;;;;;5074796;28;20234;-76
2023/10/25 05:43:06;;;;;;;449.67;187.43;;;;;;;;;;5090483;28;20210;-77
2023/10/25 05:45:32;;;;;;;432.67;175.93;;;;;;;;;;5081394;28;20233;-77
2023/10/25 05:47:58;;;;;;;457.13;186.57;;;12.20;99.90;;;;;;5077005;28;20223;-74
2023/10/25 05:50:24;;;;;;;533.37;231.10;;;;;;;;;;5070339;28;20753;-79
2023/10/25 05:52:50;;;;;;;432.30;169.77;;;;;;;;;;5090432;28;20206;-72
2023/10/25 05:55:16;;;;;;;474.47;197.27;;;;;;;;;;5096980;28;20235;-71
2023/10/25 05:57:42;;;;;;;413.23;162.77;;;;;;;;;;5094267;28;20298;-72
2023/10/25 06:00:08;;;;;;;448.97;183.30;;;;;;;;;;5090484;27;20179;-73
2023/10/25 06:02:34;;;;;;;435.70;174.30;;;;;;;;;;5095340;28;20262;-76
2023/10/25 06:05:01;;;;;;;425.40;165.77;;;;;;;;;;5090131;28;20768;-78
2023/10/25 06:07:27;;;;;;;479.10;194.13;;;;;;;;;;5070245;28;20213;-77
2023/10/25 06:09:55;;;;;;;465.27;184.07;;;;;;;;;;5086920;28;20214;-76
2023/10/25 06:12:22;;;;;;;490.07;197.80;;;;;;;;;;5091479;28;20232;-75
2023/10/25 06:14:48;;;;;;;437.10;169.97;;;;;;;;;;5095729;28;20213;-77
2023/10/25 06:17:14;;;;;;;464.90;185.43;;;;;;;;;;5093715;28;20206;-76
2023/10/25 06:19:40;;;;;;;471.43;189.10;;;;;;;;;;5080016;28;20213;-76
2023/10/25 06:22:06;;;;;;;435.50;172.60;;;;;;;;;;5097216;28;20217;-76
2023/10/25 06:24:32;;;;;;;433.00;171.23;;;;;;;;;;5093389;28;20563;-76
2023/10/25 06:26:58;;;;;;;440.10;175.67;;;;;;;;;;5086042;28;20901;-75
2023/10/25 06:29:24;;;;;;;452.63;183.67;;;;;;;;;;5080693;28;20197;-75
2023/10/25 06:31:50;;;;;;;434.63;175.63;;;;;;;;;;5082940;28;20206;-72
2023/10/25 06:34:17;;;;;;;479.47;195.13;;;;;;;;;;5087622;28;20331;-72
2023/10/25 06:36:43;;;;;;;442.77;173.67;;;;;;;;;;5083948;28;20216;-72
2023/10/25 06:39:09;;;;;;;474.17;191.23;;;;;;;;;;5099445;28;20543;-72
2023/10/25 06:41:36;;;;;;;484.00;192.00;;;;;;;;;;5087910;28;20178;-75
2023/10/25 06:44:03;;;;;;;431.40;167.77;;;;;;;;;;5083320;28;20269;-76
2023/10/25 06:46:29;;;;;;;448.33;180.23;;;;;;;;;;5091171;28;20240;-75
2023/10/25 06:48:57;;;;;;;452.07;179.27;;;;;;;;;;5084637;28;20450;-75
2023/10/25 06:51:23;;;;;;;471.87;195.83;;;;;;;;;;5067764;28;20225;-76
2023/10/25 06:53:49;;;;;;;423.07;171.20;;;;;;;;;;5078142;28;20182;-68
2023/10/25 06:56:17;;;;;;;449.50;178.67;;;;;;;;;;5080444;28;20222;-67
2023/10/25 06:58:43;;;;;;;426.17;172.03;;;;;;;;;;5085230;28;20227;-72
2023/10/25 07:01:12;;;;;;;456.63;188.50;;;12.30;99.90;;;;;;5084004;28;20217;-74
2023/10/25 07:03:42;;;;;;;487.80;206.47;;;;;;;;;;5070324;28;20214;-77
2023/10/25 07:06:08;;;;;;;423.03;175.67;;;;;;;;;;5067925;28;20210;-76
2023/10/25 07:08:34;;;;;;;451.37;190.20;;;;;;;;;;5071354;28;20274;-75
2023/10/25 07:11:00;;;;;;;425.83;171.43;;;;;;;;;;5073466;28;21641;-75
2023/10/25 07:13:29;;;;;;;492.33;204.27;;;;;;;;;;5071246;28;20229;-77
2023/10/25 07:15:56;;;;;;;394.43;155.73;;;;;;;;;;5072797;28;20228;-75
2023/10/25 07:18:22;;;;;;;485.27;206.30;;;;;;;;;;5074989;28;20309;-74
2023/10/25 07:20:48;;;;;;;461.70;192.40;;;;;;;;;;5073715;28;20553;-73
2023/10/25 07:23:14;;;;;;;446.47;181.17;;;;;;;;;;5076857;28;20206;-74
2023/10/25 07:25:40;;;;;;;494.03;201.47;;;;;;;;;;5072274;28;20213;-76
2023/10/25 07:28:06;;;;;;;466.47;187.90;;;;;;;;;;5069311;28;20210;-77
2023/10/25 07:30:32;;;;;;;450.83;179.33;;;;;;;;;;5085926;28;20715;-76
2023/10/25 07:32:58;;;;;;;417.37;163.03;;;;;;;;;;5077790;28;20255;-76
2023/10/25 07:35:24;;;;;;;504.70;210.20;;;;;;;;;;5072561;28;20217;-75
2023/10/25 07:37:50;;;;;;;441.10;171.40;;;;;;;;;;5086271;28;20232;-74
2023/10/25 07:40:16;;;;;;;425.03;170.37;;;;;;;;;;5082770;28;20213;-75
2023/10/25 07:42:42;;;;;;;454.87;181.20;;;;;;;;;;5081560;28;20229;-76
2023/10/25 07:45:08;;;;;;;457.10;193.17;;;;;;;;;;5069105;28;20181;-74
2023/10/25 07:47:34;;;;;;;451.37;187.67;;;;;;;;;;5076403;28;20202;-74
2023/10/25 07:50:00;;;;;;;425.27;176.83;;;;;;;;;;5071442;28;20683;-75
2023/10/25 07:52:27;;;;;;;466.07;187.53;;;;;;;;;;5067766;28;20212;-74
2023/10/25 07:54:53;;;;;;;404.63;158.97;;;12.50;99.90;;;;;;5076145;28;20579;-74
2023/10/25 07:57:19;;;;;;;477.10;190.47;;;;;;;;;;5073354;28;20199;-77
2023/10/25 07:59:45;;;;;;;457.70;184.33;;;;;;;;;;5073006;28;21782;-74
2023/10/25 08:02:11;;;;;;;436.90;170.87;;;;;;;;;;5075831;28;20213;-79
2023/10/25 08:04:37;;;;;;;453.67;183.27;;;;;;;;;;5075372;28;20268;-78
2023/10/25 08:07:04;;;;;;;468.93;193.03;;;12.40;99.90;;;;;;5073727;28;20603;-74
2023/10/25 08:09:30;;;;;;;481.77;198.80;;;;;;;;;;5078743;28;20210;-75
2023/10/25 08:11:57;;;;;;;439.90;170.97;;;;;;;;;;5096434;28;20181;-76
2023/10/25 08:14:22;;;;;;;452.87;180.93;;;;;;;;;;5100055;28;20304;-75
2023/10/25 08:16:48;;;;;;;421.30;164.97;;;;;;;;;;5095242;28;20377;-74
2023/10/25 08:19:15;;;;;;;445.73;175.03;;;;;;;;;;5096909;28;20209;-75
2023/10/25 08:21:41;;;;;;;428.93;169.57;;;;;;;;;;5097615;28;20252;-74
2023/10/25 08:24:07;;;;;;;433.93;173.03;;;;;;;;;;5099366;28;20676;-74
2023/10/25 08:26:37;;;;;;;451.43;182.33;;;;;;;;;;5093754;28;21182;-75
2023/10/25 08:29:05;;;;;;;442.07;180.73;;;;;;;;;;5092466;28;20214;-77
2023/10/25 08:31:31;;;;;;;419.73;165.87;;;;;;;;;;5095824;28;20198;-75
2023/10/25 08:33:57;;;;;;;441.03;179.13;;;;;;;;;;5081971;28;20215;-76
2023/10/25 08:36:23;;;;;;;426.57;169.87;;;;;;;;;;5099102;28;20213;-75
2023/10/25 08:38:49;;;;;;;458.00;186.57;;;;;;;;;;5074208;28;20174;-76
2023/10/25 08:41:17;;;;;;;470.20;198.40;;;;;;;;;;5069387;28;20232;-77
2023/10/25 08:43:44;;;;;;;448.13;181.93;;;;;;;;;;5068145;28;20268;-79
2023/10/25 08:46:10;;;;;;;421.40;173.03;;;;;;;;;;5068599;28;20706;-79
2023/10/25 08:48:36;;;;;;;469.40;204.33;;;;;;;;;;5069737;28;20214;-77
2023/10/25 08:51:03;;;;;;;429.43;171.93;;;;;;;;;;5069806;28;20652;-78
2023/10/25 08:53:29;;;;;;;455.40;185.20;;;;;;;;;;5067977;28;20273;-77
2023/10/25 08:55:56;;;;;;;433.63;171.10;;;;;;;;;;5075512;28;20237;-75
2023/10/25 08:58:23;;;;;;;462.43;195.10;;;;;;;;;;5068738;28;20225;-76
2023/10/25 09:00:51;;;;;;;457.50;189.57;;;13.10;99.90;;;;;;5077019;28;20214;-75
2023/10/25 09:03:32;;;;;;;502.77;215.93;;;;;;;;;;5074067;28;20197;-77
2023/10/25 09:06:02;;;;;;;479.53;199.20;;;;;;;;;;5067745;28;20284;-78
2023/10/25 09:08:28;;;;;;;470.07;193.13;;;;;;;;;;5056547;28;20214;-75
2023/10/25 09:11:01;;;;;;;441.37;178.03;;;;;;;;;;5057090;28;20838;-74
2023/10/25 09:13:27;;;;;;;435.07;179.30;;;;;;;;;;5051072;28;20243;-79
2023/10/25 09:16:02;;;;;;;458.40;196.70;;;;;;;;;;5051378;28;20317;-78
2023/10/25 09:18:28;;;;;;;454.87;190.20;;;;;;;;;;5049702;28;20236;-76
2023/10/25 09:20:54;;;;;;;446.33;184.77;;;;;;;;;;5052259;28;20191;-74
2023/10/25 09:23:20;;;;;;;477.23;207.43;;;;;;;;;;5047850;28;20365;-76
2023/10/25 09:25:46;;;;;;;459.47;192.00;;;;;;;;;;5044340;28;20634;-76
2023/10/25 09:28:19;;;;;;;452.70;187.50;;;;;;;;;;5051976;28;20211;-76
2023/10/25 09:30:45;;;;;;;497.20;214.17;;;;;;;;;;5049097;28;20352;-76
2023/10/25 09:33:11;;;;;;;456.47;189.93;;;;;;;;;;5056077;28;20275;-77
2023/10/25 09:35:37;;;;;;;482.70;201.37;;;;;;;;;;5076865;28;20259;-76
2023/10/25 09:38:03;;;;;;;454.93;186.83;;;;;;;;;;5057377;28;20223;-75
2023/10/25 09:40:30;;;;;;;466.20;192.70;;;;;;;;;;5051983;28;20261;-75
2023/10/25 09:42:57;;;;;;;428.43;176.13;;;;;;;;;;5058443;28;20584;-75
2023/10/25 09:45:31;;;;;;;444.93;186.97;;;;;;;;;;5054546;28;20222;-75
2023/10/25 09:48:00;;;;;;;415.40;171.57;;;;;;;;;;5054929;28;20195;-75
2023/10/25 09:50:31;;;;;;;446.73;182.37;;;;;;;;;;5052232;28;20211;-75
2023/10/25 09:53:09;;;;;;;468.70;198.27;;;14.40;99.90;;;;;;5044143;28;20342;-76
2023/10/25 09:55:36;;;;;;;488.73;212.60;;;14.50;99.90;;;;;;5041091;28;20824;-77
2023/10/25 09:58:02;;;;;;;523.53;242.07;;;;;;;;;;5044165;28;22243;-85
2023/10/25 10:00:29;;;;;;;478.83;209.73;;;;;;;;;;5053739;28;20588;-88
2023/10/25 10:03:07;;;;;;;457.30;194.40;;;;;;;;;;5059072;28;20187;-81
2023/10/25 10:05:43;;;;;;;465.13;202.03;;;14.30;99.90;;;;;;5053135;28;20225;-84
2023/10/25 10:08:15;;;;;;;444.40;186.67;;;14.00;99.90;;;;;;5047410;28;20260;-85
2023/10/25 10:10:48;;;;;;;460.23;197.53;;;;;;;;;;5049543;28;20214;-71
2023/10/25 10:13:17;;;;;;;456.07;198.10;;;13.90;99.90;;;;;;5046677;28;20236;-75
2023/10/25 10:16:04;;;;;;;595.33;283.37;;;13.90;99.90;;;;;;5042457;28;20309;-75
2023/10/25 10:18:34;;;;;;;502.33;222.30;;;;;;;;;;5041934;28;20688;-74
2023/10/25 10:21:10;;;;;;;435.37;186.63;;;;;;;;;;5043527;28;20650;-74
2023/10/25 10:23:40;;;;;;;465.63;196.47;;;14.00;99.90;;;;;;5060587;28;20214;-74
2023/10/25 10:26:07;;;;;;;478.90;209.93;;;;;;;;;;5055126;28;20853;-73
2023/10/25 10:28:51;;;;;;;496.73;221.10;;;;;;;;;;5043475;28;20226;-69
2023/10/25 10:31:18;;;;;;;441.77;189.43;;;;;;;;;;5048494;28;20289;-70
2023/10/25 10:33:44;;;;;;;477.03;210.20;;;;;;;;;;5046214;28;20210;-69
2023/10/25 10:36:11;;;;;;;485.30;211.70;;;;;;;;;;5050240;28;20217;-73
2023/10/25 10:39:24;;;;;;;460.13;200.07;;;14.30;99.90;;;;;;5050363;28;20564;-70
2023/10/25 10:41:50;;;;;;;466.83;204.33;;;;;;;;;;5036863;28;20210;-71
2023/10/25 10:44:16;;;;;;;449.67;189.63;;;;;;;;;;5049985;28;20329;-74
2023/10/25 10:46:51;;;;;;;452.30;198.17;;;14.70;99.90;;;;;;5065938;28;20249;-74
2023/10/25 10:49:19;;;;;;;474.83;212.97;;;14.50;99.90;;;;;;5041242;28;20222;-73
2023/10/25 10:51:45;;;;;;;450.70;200.13;;;;;;;;;;5050705;28;20221;-73
2023/10/25 10:54:11;;;;;;;428.17;184.13;;;;;;;;;;5049254;28;20203;-73
2023/10/25 10:56:37;;;;;;;439.43;187.07;;;;;;;;;;5049132;28;20190;-73
2023/10/25 10:59:03;;;;;;;457.93;201.33;;;;;;;;;;5048720;28;20214;-74
2023/10/25 11:01:30;;;;;;;451.27;198.93;;;14.10;99.90;;;;;;5049295;28;20211;-74
2023/10/25 11:03:58;;;;;;;450.57;201.57;;;14.20;99.90;;;;;;5041807;28;20238;-74
2023/10/25 11:06:25;;;;;;;480.07;216.97;;;;;;;;;;5052050;28;20226;-74
2023/10/25 11:08:52;;;;;;;449.50;197.73;;;14.20;99.90;;;;;;5064731;28;20180;-73
2023/10/25 11:11:21;;;;;;;428.53;186.23;;;13.90;99.90;;;;;;5048395;28;20215;-73
2023/10/25 11:13:49;;;;;;;473.73;226.37;;;13.90;99.90;;;;;;5042717;28;20212;-73
2023/10/25 11:16:16;;;;;;;468.90;230.43;;;14.10;99.90;;;;;;5049133;28;20218;-75
2023/10/25 11:18:42;;;;;;;477.40;208.90;;;;;;;;;;5046030;28;20211;-75
2023/10/25 11:21:08;;;;;;;442.07;187.30;;;;;;;;;;5049067;28;20183;-74
2023/10/25 11:23:34;;;;;;;455.03;194.97;;;;;;;;;;5054655;28;20602;-74
2023/10/25 11:26:00;;;;;;;473.10;207.43;;;;;;;;;;5046880;28;20215;-75
2023/10/25 11:28:26;;;;;;;457.77;192.67;;;;;;;;;;5043177;28;20214;-74
2023/10/25 11:30:52;;;;;;;454.60;192.83;;;;;;;;;;5047033;28;20223;-75
2023/10/25 11:33:19;;;;;;;506.87;226.47;;;;;;;;;;5046592;28;20285;-75
2023/10/25 11:35:45;;;;;;;470.97;203.97;;;;;;;;;;5050873;28;20218;-75
2023/10/25 11:38:12;;;;;;;477.63;213.63;;;;;;;;;;5049929;28;20473;-75
2023/10/25 11:40:43;;;;;;;452.33;195.70;;;13.90;99.90;;;;;;5049583;28;20219;-75
2023/10/25 11:43:09;;;;;;;452.90;196.37;;;;;;;;;;5047202;28;20211;-74
2023/10/25 11:45:37;;;;;;;467.90;201.73;;;;;;;;;;5053047;28;20206;-75
2023/10/25 11:48:03;;;;;;;448.43;191.97;;;;;;;;;;5051023;28;20504;-74
2023/10/25 11:50:29;;;;;;;430.57;184.53;;;;;;;;;;5049512;28;20179;-75
2023/10/25 11:52:58;;;;;;;459.40;200.90;;;;;;;;;;5050159;28;20208;-74
2023/10/25 11:55:24;;;;;;;452.83;194.93;;;;;;;;;;5049301;28;20325;-75
2023/10/25 11:57:50;;;;;;;459.23;206.40;;;;;;;;;;5057501;28;20636;-75
2023/10/25 12:00:16;;;;;;;523.93;469.83;;;;;;;;;;5057397;28;20274;-75
2023/10/25 12:02:43;;;;;;;498.37;216.23;;;;;;;;;;5052643;28;20179;-75
2023/10/25 12:05:09;;;;;;;496.07;211.47;;;;;;;;;;5050730;28;20726;-75
2023/10/25 12:07:35;;;;;;;451.97;187.80;;;;;;;;;;5050418;28;20211;-74
2023/10/25 12:10:01;;;;;;;499.20;217.20;;;;;;;;;;5049595;28;20742;-73
2023/10/25 12:12:27;;;;;;;491.43;217.57;;;;;;;;;;5049796;28;20548;-74
2023/10/25 12:14:53;;;;;;;500.23;222.27;;;;;;;;;;5050937;28;20287;-74
2023/10/25 12:17:19;;;;;;;493.97;218.30;;;;;;;;;;5053007;28;20223;-74
2023/10/25 12:19:47;;;;;;;506.50;228.60;;;;;;;;;;5050203;28;20221;-74
2023/10/25 12:22:13;;;;;;;512.67;227.03;;;;;;;;;;5050443;28;20289;-74
2023/10/25 12:24:40;;;;;;;507.40;219.97;;;;;;;;;;5067112;28;20301;-74
2023/10/25 12:27:07;;;;;;;454.87;191.37;;;15.50;99.90;;;;;;5050859;28;20233;-73
2023/10/25 12:29:33;;;;;;;463.27;199.73;;;;;;;;;;5060980;28;20209;-74
2023/10/25 12:31:59;;;;;;;447.07;192.33;;;;;;;;;;5055052;28;20464;-74
2023/10/25 12:34:25;;;;;;;457.13;195.40;;;;;;;;;;5047047;28;20211;-74
2023/10/25 12:36:51;;;;;;;471.97;205.53;;;16.10;99.90;;;;;;5050634;28;20678;-74
2023/10/25 12:39:17;;;;;;;488.43;219.97;;;;;;;;;;5048154;28;20191;-74
2023/10/25 12:41:44;;;;;;;511.93;233.30;;;16.40;99.90;;;;;;5053508;28;20266;-74
2023/10/25 12:44:12;;;;;;;456.63;198.87;;;;;;;;;;5060332;28;20212;-74
2023/10/25 12:46:38;;;;;;;467.23;210.53;;;;;;;;;;5050570;28;20222;-74
2023/10/25 12:49:04;;;;;;;493.60;223.43;;;;;;;;;;5048625;28;20316;-74
2023/10/25 12:51:30;;;;;;;455.40;202.40;;;17.40;97.50;;;;;;5052529;28;20306;-75
2023/10/25 12:53:57;;;;;;;426.17;193.37;;;;;;;;;;5055601;28;20190;-74
2023/10/25 12:56:23;;;;;;;462.20;210.00;;;;;;;;;;5056481;28;20214;-74
2023/10/25 12:58:49;;;;;;;499.23;231.47;;;;;;;;;;5053870;28;20229;-74
2023/10/25 13:01:15;;;;;;;445.33;202.40;;;;;;;;;;5064280;28;20210;-74
2023/10/25 13:03:40;;;;;;;500.60;238.93;;;;;;;;;;5058006;28;20681;-73
2023/10/25 13:06:07;;;;;;;486.60;229.33;;;;;;;;;;5053672;28;20210;-74
2023/10/25 13:08:33;;;;;;;472.30;219.10;;;;;;;;;;5050630;28;20186;-74
2023/10/25 13:10:59;;;;;;;697.87;356.13;;;;;;;;;;5044361;28;20349;-74
2023/10/25 13:13:26;;;;;;;457.47;211.83;;;;;;;;;;5056668;28;20214;-74
2023/10/25 13:15:52;;;;;;;490.73;230.70;;;;;;;;;;5069274;28;20244;-73
2023/10/25 13:18:18;;;;;;;551.53;274.53;;;;;;;;;;5050740;28;20203;-74
2023/10/25 13:20:43;;;;;;;521.43;257.17;;;;;;;;;;5055051;28;20194;-73
2023/10/25 13:23:09;;;;;;;477.37;226.47;;;;;;;;;;5061267;28;20210;-73
2023/10/25 13:25:35;;;;;;;486.60;236.73;;;;;;;;;;5069542;28;20253;-74
2023/10/25 13:28:02;;;;;;;475.53;226.43;;;18.20;91.40;;;;;;5054922;28;20573;-73
2023/10/25 13:30:28;;;;;;;464.97;221.47;;;;;;;;;;5059262;28;20367;-74
2023/10/25 13:32:54;;;;;;;506.87;246.80;;;;;;;;;;5056579;28;20983;-74
2023/10/25 13:35:20;;;;;;;487.97;236.07;;;;;;;;;;5050583;28;20905;-73
2023/10/25 13:37:46;;;;;;;517.30;240.80;;;;;;;;;;5053762;28;20280;-74